Site contains unofficial IBTrACS data. Visit the IBTrACS Website to access archived data.

1872 Hurricane NOT_NAMED (1872273N12335)


IBTrACS version v04r00. Visit IBTrACS website for data access.
Please direct all questions to the IBTrACS Q and A forum

Storm track - Intensity - Wind Radii - Intensity Data - Source Data - All data

Summary Information

Storm ID 1872273N12335
Start Sep 29 00Z
Max Intensity 65 kt (Sep 30 18Z), 996 mb (Oct 6 18Z)
End Oct 9 00Z
ATCF IDs
Track status Best track data.

Storm track plot

Map of storm track

Intensity plots

Map of storm track

Radial wind information

No radial wind information for this storm


Position and Intensity Table

BASIN ISO_TIME_________ NATURE LAT LON MLC WIND MLC PRES
degrees north degrees east kts mb
NA 1872-09-29 00:00:00 TS 12.40 -25.40 30
NA 03:00:00 TS 12.75 -26.06 32
NA 06:00:00 TS 13.10 -26.70 35
NA 09:00:00 TS 13.45 -27.30 35
NA 12:00:00 TS 13.80 -27.90 35
NA 15:00:00 TS 14.16 -28.55 37
NA 18:00:00 TS 14.50 -29.20 40
NA 21:00:00 TS 14.80 -29.80 45
NA 1872-09-30 00:00:00 TS 15.10 -30.40 50
NA 03:00:00 TS 15.44 -31.05 55
NA 06:00:00 TS 15.80 -31.70 60
NA 09:00:00 TS 16.16 -32.30 60
NA 12:00:00 TS 16.50 -32.90 60
NA 15:00:00 TS 16.79 -33.54 62
NA 18:00:00 TS 17.10 -34.20 65
NA 21:00:00 TS 17.46 -34.84 65
NA 1872-10-01 00:00:00 TS 17.90 -35.50 65
NA 03:00:00 TS 18.43 -36.24 65
NA 06:00:00 TS 19.00 -37.00 65
NA 09:00:00 TS 19.59 -37.70 65
NA 12:00:00 TS 20.10 -38.40 65
NA 15:00:00 TS 20.44 -39.15 65
NA 18:00:00 TS 20.70 -39.90 65
NA 21:00:00 TS 20.97 -40.62 65
NA 1872-10-02 00:00:00 TS 21.30 -41.30 65
NA 03:00:00 TS 21.77 -41.91 65
NA 06:00:00 TS 22.30 -42.50 65
NA 09:00:00 TS 22.80 -43.17 65
NA 12:00:00 TS 23.30 -43.80 65
NA 15:00:00 TS 23.78 -44.34 65
NA 18:00:00 TS 24.30 -44.80 65
NA 21:00:00 TS 24.91 -45.24 65
NA 1872-10-03 00:00:00 TS 25.50 -45.60 65
NA 03:00:00 TS 25.98 -45.83 65
NA 06:00:00 TS 26.40 -46.00 65
NA 09:00:00 TS 26.81 -46.21 65
NA 12:00:00 TS 27.20 -46.40 65
NA 15:00:00 TS 27.60 -46.58 65
NA 18:00:00 TS 28.00 -46.70 65
NA 21:00:00 TS 28.39 -46.72 65
NA 1872-10-04 00:00:00 TS 28.80 -46.70 65
NA 03:00:00 TS 29.24 -46.71 65
NA 06:00:00 TS 29.70 -46.70 65
NA 09:00:00 TS 30.15 -46.63 65
NA 12:00:00 TS 30.60 -46.50 65
NA 15:00:00 TS 31.05 -46.32 65
NA 18:00:00 TS 31.50 -46.10 65
NA 21:00:00 TS 31.95 -45.91 65
NA 1872-10-05 00:00:00 TS 32.40 -45.70 65
NA 03:00:00 TS 32.85 -45.46 65
NA 06:00:00 TS 33.30 -45.20 65
NA 09:00:00 TS 33.75 -44.96 65
NA 12:00:00 TS 34.20 -44.70 65
NA 15:00:00 TS 34.65 -44.41 65
NA 18:00:00 TS 35.10 -44.10 65
NA 21:00:00 TS 35.56 -43.75 65
NA 1872-10-06 00:00:00 TS 36.00 -43.40 65
NA 03:00:00 TS 36.40 -43.11 65
NA 06:00:00 TS 36.80 -42.80 65
NA 09:00:00 TS 37.25 -42.44 65
NA 12:00:00 TS 37.70 -42.00 65
NA 15:00:00 TS 38.10 -41.56 65
NA 18:00:00 TS 38.50 -40.90 65 996
NA 21:00:00 TS 38.96 -39.88 62
NA 1872-10-07 00:00:00 TS 39.40 -38.60 60
NA 03:00:00 TS 39.77 -37.20 57
NA 06:00:00 TS 40.10 -35.80 55
NA 09:00:00 TS 40.32 -34.53 52
NA 12:00:00 TS 40.70 -33.50 50
NA 15:00:00 TS 41.47 -32.77 47
NA 18:00:00 ET 42.40 -32.20 45
NA 21:00:00 ET 43.18 -31.57 42
NA 1872-10-08 00:00:00 ET 44.00 -31.00 40
NA 03:00:00 ET 44.93 -30.52 40
NA 06:00:00 ET 45.90 -30.10 40
NA 09:00:00 ET 46.85 -29.70 37
NA 12:00:00 ET 47.80 -29.30 35
NA 15:00:00 ET 48.76 -28.86 35
NA 18:00:00 ET 49.70 -28.40 35
NA 21:00:00 ET 50.61 -27.95 32
NA 1872-10-09 00:00:00 ET 51.50 -27.50 30

Source Information

Agency Information
USA
TOKYO
CMA
HKO
NEWDELHI
REUNION
BOM
NADI
WELLINGTON
DS824
TD9636
TD9635
NEUMANN
MLC

All available IBTrACS Data

SEASON BASIN SUBBASIN ISO_TIME_________ NATURE LAT LON DIST2LAND LANDFALL IFLAG USA SSHS MLC LAT MLC LON MLC CLASS MLC WIND MLC PRES STORM SPEED STORM DIR
Year degrees north degrees east km km 1 degrees north degrees east kts mb kts degrees
1872 NA NA 1872-09-29 00:00:00 TS 12.40 -25.40 892 892 _____________O -1 12.40 -25.40 TD 30 15 298
1872 NA NA 03:00:00 TS 12.75 -26.06 953 953 _____________P -1 12.75 -26.06 TD 32 15 299
1872 NA NA 06:00:00 TS 13.10 -26.70 1009 1009 _____________O -1 13.10 -26.70 TS 35 14 300
1872 NA NA 09:00:00 TS 13.45 -27.30 1067 1065 _____________P -1 13.45 -27.30 TS 35 14 301
1872 NA NA 12:00:00 TS 13.80 -27.90 1125 1125 _____________O -1 13.80 -27.90 TS 35 14 300
1872 NA NA 15:00:00 TS 14.16 -28.55 1196 1196 _____________P -1 14.16 -28.55 TS 37 14 299
1872 NA NA 18:00:00 TS 14.50 -29.20 1259 1259 _____________O -1 14.50 -29.20 TS 40 14 298
1872 NA NA 21:00:00 TS 14.80 -29.80 1323 1323 _____________P -1 14.80 -29.80 TS 45 13 297
1872 NA NA 1872-09-30 00:00:00 TS 15.10 -30.40 1387 1387 _____________O -1 15.10 -30.40 TS 50 14 298
1872 NA NA 03:00:00 TS 15.44 -31.05 1462 1462 _____________P -1 15.44 -31.05 TS 55 14 299
1872 NA NA 06:00:00 TS 15.80 -31.70 1528 1528 _____________O -1 15.80 -31.70 TS 60 14 301
1872 NA NA 09:00:00 TS 16.16 -32.30 1595 1595 _____________P -1 16.16 -32.30 TS 60 14 301
1872 NA NA 12:00:00 TS 16.50 -32.90 1661 1661 _____________O -1 16.50 -32.90 TS 60 14 298
1872 NA NA 15:00:00 TS 16.79 -33.54 1728 1728 _____________P -1 16.79 -33.54 TS 62 14 296
1872 NA NA 18:00:00 TS 17.10 -34.20 1805 1805 _____________O -1 17.10 -34.20 HU 65 14 298
1872 NA NA 21:00:00 TS 17.46 -34.84 1874 1874 _____________P -1 17.46 -34.84 HU 65 15 303
1872 NA NA 1872-10-01 00:00:00 TS 17.90 -35.50 1953 1953 _____________O -1 17.90 -35.50 HU 65 17 306
1872 NA NA 03:00:00 TS 18.43 -36.24 2017 2017 _____________P -1 18.43 -36.24 HU 65 18 308
1872 NA NA 06:00:00 TS 19.00 -37.00 2088 2088 _____________O -1 19.00 -37.00 HU 65 18 310
1872 NA NA 09:00:00 TS 19.59 -37.70 2152 2152 _____________P -1 19.59 -37.70 HU 65 17 310
1872 NA NA 12:00:00 TS 20.10 -38.40 2218 2218 _____________O -1 20.10 -38.40 HU 65 16 302
1872 NA NA 15:00:00 TS 20.44 -39.15 2228 2211 _____________P -1 20.44 -39.15 HU 65 15 293
1872 NA NA 18:00:00 TS 20.70 -39.90 2211 2190 _____________O -1 20.70 -39.90 HU 65 15 291
1872 NA NA 21:00:00 TS 20.97 -40.62 2192 2172 _____________P -1 20.97 -40.62 HU 65 14 295
1872 NA NA 1872-10-02 00:00:00 TS 21.30 -41.30 2175 2169 _____________O -1 21.30 -41.30 HU 65 14 304
1872 NA NA 03:00:00 TS 21.77 -41.91 2186 2181 _____________P -1 21.77 -41.91 HU 65 15 312
1872 NA NA 06:00:00 TS 22.30 -42.50 2201 2200 _____________O -1 22.30 -42.50 HU 65 16 312
1872 NA NA 09:00:00 TS 22.80 -43.17 2213 2213 _____________P -1 22.80 -43.17 HU 65 16 310
1872 NA NA 12:00:00 TS 23.30 -43.80 2234 2234 _____________O -1 23.30 -43.80 HU 65 15 312
1872 NA NA 15:00:00 TS 23.78 -44.34 2261 2247 _____________P -1 23.78 -44.34 HU 65 14 318
1872 NA NA 18:00:00 TS 24.30 -44.80 2249 2223 _____________O -1 24.30 -44.80 HU 65 14 324
1872 NA NA 21:00:00 TS 24.91 -45.24 2226 2203 _____________P -1 24.91 -45.24 HU 65 14 329
1872 NA NA 1872-10-03 00:00:00 TS 25.50 -45.60 2206 2197 _____________O -1 25.50 -45.60 HU 65 12 334
1872 NA NA 03:00:00 TS 25.98 -45.83 2204 2194 _____________P -1 25.98 -45.83 HU 65 10 338
1872 NA NA 06:00:00 TS 26.40 -46.00 2200 2193 _____________O -1 26.40 -46.00 HU 65 9 338
1872 NA NA 09:00:00 TS 26.81 -46.21 2197 2191 _____________P -1 26.81 -46.21 HU 65 9 336
1872 NA NA 12:00:00 TS 27.20 -46.40 2195 2190 _____________O -1 27.20 -46.40 HU 65 9 337
1872 NA NA 15:00:00 TS 27.60 -46.58 2193 2147 _____________P -1 27.60 -46.58 HU 65 8 342
1872 NA NA 18:00:00 TS 28.00 -46.70 2147 2104 _____________O -1 28.00 -46.70 HU 65 8 351
1872 NA NA 21:00:00 TS 28.39 -46.72 2104 2060 _____________P -1 28.39 -46.72 HU 65 8 1
1872 NA NA 1872-10-04 00:00:00 TS 28.80 -46.70 2060 2017 _____________O -1 28.80 -46.70 HU 65 9 2
1872 NA NA 03:00:00 TS 29.24 -46.71 2017 1963 _____________P -1 29.24 -46.71 HU 65 9 0
1872 NA NA 06:00:00 TS 29.70 -46.70 1963 1920 _____________O -1 29.70 -46.70 HU 65 9 4
1872 NA NA 09:00:00 TS 30.15 -46.63 1922 1871 _____________P -1 30.15 -46.63 HU 65 9 11
1872 NA NA 12:00:00 TS 30.60 -46.50 1871 1831 _____________O -1 30.60 -46.50 HU 65 9 17
1872 NA NA 15:00:00 TS 31.05 -46.32 1823 1786 _____________P -1 31.05 -46.32 HU 65 10 21
1872 NA NA 18:00:00 TS 31.50 -46.10 1786 1750 _____________O -1 31.50 -46.10 HU 65 10 21
1872 NA NA 21:00:00 TS 31.95 -45.91 1750 1703 _____________P -1 31.95 -45.91 HU 65 10 21
1872 NA NA 1872-10-05 00:00:00 TS 32.40 -45.70 1703 1668 _____________O -1 32.40 -45.70 HU 65 10 23
1872 NA NA 03:00:00 TS 32.85 -45.46 1668 1626 _____________P -1 32.85 -45.46 HU 65 10 25
1872 NA NA 06:00:00 TS 33.30 -45.20 1626 1592 _____________O -1 33.30 -45.20 HU 65 10 25
1872 NA NA 09:00:00 TS 33.75 -44.96 1592 1553 _____________P -1 33.75 -44.96 HU 65 10 25
1872 NA NA 12:00:00 TS 34.20 -44.70 1553 1520 _____________O -1 34.20 -44.70 HU 65 10 26
1872 NA NA 15:00:00 TS 34.65 -44.41 1524 1487 _____________P -1 34.65 -44.41 HU 65 10 29
1872 NA NA 18:00:00 TS 35.10 -44.10 1487 1461 _____________O -1 35.10 -44.10 HU 65 11 31
1872 NA NA 21:00:00 TS 35.56 -43.75 1456 1431 _____________P -1 35.56 -43.75 HU 65 11 32
1872 NA NA 1872-10-06 00:00:00 TS 36.00 -43.40 1431 1408 _____________O -1 36.00 -43.40 HU 65 10 32
1872 NA NA 03:00:00 TS 36.40 -43.11 1408 1386 _____________P -1 36.40 -43.11 HU 65 9 31
1872 NA NA 06:00:00 TS 36.80 -42.80 1386 1365 _____________O -1 36.80 -42.80 HU 65 10 32
1872 NA NA 09:00:00 TS 37.25 -42.44 1370 1348 _____________P -1 37.25 -42.44 HU 65 11 35
1872 NA NA 12:00:00 TS 37.70 -42.00 1348 1337 _____________O -1 37.70 -42.00 HU 65 11 39
1872 NA NA 15:00:00 TS 38.10 -41.56 1337 1334 _____________P -1 38.10 -41.56 HU 65 12 47
1872 NA NA 18:00:00 TS 38.50 -40.90 1346 1344 _____________O -1 38.50 -40.90 HU 65 996 16 57
1872 NA NA 21:00:00 TS 38.96 -39.88 1369 1369 _____________P -1 38.96 -39.88 HU 62 20 63
1872 NA NA 1872-10-07 00:00:00 TS 39.40 -38.60 1422 1422 _____________O -1 39.40 -38.60 TS 60 22 68
1872 NA NA 03:00:00 TS 39.77 -37.20 1488 1488 _____________P -1 39.77 -37.20 TS 57 23 72
1872 NA NA 06:00:00 TS 40.10 -35.80 1566 1566 _____________O -1 40.10 -35.80 TS 55 21 75
1872 NA NA 09:00:00 TS 40.32 -34.53 1645 1645 _____________P -1 40.32 -34.53 TS 52 18 71
1872 NA NA 12:00:00 TS 40.70 -33.50 1690 1690 _____________O -1 40.70 -33.50 TS 50 18 49
1872 NA NA 15:00:00 TS 41.47 -32.77 1694 1688 _____________P -1 41.47 -32.77 TS 47 20 30
1872 NA NA 18:00:00 ET 42.40 -32.20 1690 1688 _____________O -1 42.40 -32.20 EX 45 19 27
1872 NA NA 21:00:00 ET 43.18 -31.57 1696 1696 _____________P -1 43.18 -31.57 EX 42 18 29
1872 NA NA 1872-10-08 00:00:00 ET 44.00 -31.00 1707 1657 _____________O -1 44.00 -31.00 EX 40 19 23
1872 NA NA 03:00:00 ET 44.93 -30.52 1657 1576 _____________P -1 44.93 -30.52 EX 40 20 19
1872 NA NA 06:00:00 ET 45.90 -30.10 1570 1493 _____________O -1 45.90 -30.10 EX 40 20 17
1872 NA NA 09:00:00 ET 46.85 -29.70 1493 1421 _____________P -1 46.85 -29.70 EX 37 20 16
1872 NA NA 12:00:00 ET 47.80 -29.30 1416 1347 _____________O -1 47.80 -29.30 EX 35 20 17
1872 NA NA 15:00:00 ET 48.76 -28.86 1342 1277 _____________P -1 48.76 -28.86 EX 35 20 17
1872 NA NA 18:00:00 ET 49.70 -28.40 1273 1217 _____________O -1 49.70 -28.40 EX 35 19 18
1872 NA NA 21:00:00 ET 50.61 -27.95 1217 1162 _____________P -1 50.61 -27.95 EX 32 19 18
1872 NA NA 1872-10-09 00:00:00 ET 51.50 -27.50 1162 _____________O -1 51.50 -27.50 EX 30 19 18